sensor_id;sensor_type;location;lat;lon;timestamp;pressure;altitude;pressure_sealevel;temperature;humidity
37860;BME280;23698;52.014;5.190;2023-04-15T00:01:26;100783.19;;;8.82;100.00
37860;BME280;23698;52.014;5.190;2023-04-15T00:04:12;100785.28;;;8.95;100.00
37860;BME280;23698;52.014;5.190;2023-04-15T00:06:58;100790.59;;;8.65;100.00
37860;BME280;23698;52.014;5.190;2023-04-15T00:09:47;100788.22;;;8.85;100.00
37860;BME280;23698;52.014;5.190;2023-04-15T00:12:33;100787.41;;;8.85;100.00
37860;BME280;23698;52.014;5.190;2023-04-15T00:15:19;100783.69;;;8.86;100.00
37860;BME280;23698;52.014;5.190;2023-04-15T00:18:07;100776.59;;;8.85;100.00
37860;BME280;23698;52.014;5.190;2023-04-15T00:20:53;100782.22;;;8.98;100.00
37860;BME280;23698;52.014;5.190;2023-04-15T00:23:40;100775.88;;;9.06;100.00
37860;BME280;23698;52.014;5.190;2023-04-15T00:26:26;100770.59;;;9.13;100.00
37860;BME280;23698;52.014;5.190;2023-04-15T00:29:14;100779.19;;;9.16;100.00
37860;BME280;23698;52.014;5.190;2023-04-15T00:32:00;100771.94;;;9.32;100.00
37860;BME280;23698;52.014;5.190;2023-04-15T00:34:47;100775.47;;;9.32;100.00
37860;BME280;23698;52.014;5.190;2023-04-15T00:37:34;100781.84;;;9.01;100.00
37860;BME280;23698;52.014;5.190;2023-04-15T00:40:22;100778.84;;;8.96;100.00
37860;BME280;23698;52.014;5.190;2023-04-15T00:43:10;100778.94;;;8.88;100.00
37860;BME280;23698;52.014;5.190;2023-04-15T00:45:57;100781.41;;;9.13;100.00
37860;BME280;23698;52.014;5.190;2023-04-15T00:48:45;100783.28;;;9.12;100.00
37860;BME280;23698;52.014;5.190;2023-04-15T00:51:33;100778.41;;;8.69;100.00
37860;BME280;23698;52.014;5.190;2023-04-15T00:54:20;100782.00;;;8.85;100.00
37860;BME280;23698;52.014;5.190;2023-04-15T00:57:07;100782.06;;;8.77;100.00
37860;BME280;23698;52.014;5.190;2023-04-15T00:59:54;100781.44;;;8.66;100.00
37860;BME280;23698;52.014;5.190;2023-04-15T01:02:41;100778.59;;;8.37;100.00
37860;BME280;23698;52.014;5.190;2023-04-15T01:05:28;100775.91;;;8.37;100.00
37860;BME280;23698;52.014;5.190;2023-04-15T01:08:16;100774.22;;;8.36;100.00
37860;BME280;23698;52.014;5.190;2023-04-15T01:11:03;100778.75;;;8.12;100.00
37860;BME280;23698;52.014;5.190;2023-04-15T01:13:49;100775.34;;;8.18;100.00
37860;BME280;23698;52.014;5.190;2023-04-15T01:16:37;100776.03;;;8.12;100.00
37860;BME280;23698;52.014;5.190;2023-04-15T01:19:25;100781.69;;;8.02;100.00
37860;BME280;23698;52.014;5.190;2023-04-15T01:22:11;100776.81;;;7.98;100.00
37860;BME280;23698;52.014;5.190;2023-04-15T01:25:01;100777.94;;;8.03;100.00
37860;BME280;23698;52.014;5.190;2023-04-15T01:27:53;100776.91;;;7.81;100.00
37860;BME280;23698;52.014;5.190;2023-04-15T01:30:39;100781.28;;;7.74;100.00
37860;BME280;23698;52.014;5.190;2023-04-15T01:33:26;100775.94;;;7.66;100.00
37860;BME280;23698;52.014;5.190;2023-04-15T01:36:12;100776.44;;;7.69;100.00
37860;BME280;23698;52.014;5.190;2023-04-15T01:38:59;100768.84;;;7.65;100.00
37860;BME280;23698;52.014;5.190;2023-04-15T01:41:46;100778.97;;;7.63;100.00
37860;BME280;23698;52.014;5.190;2023-04-15T01:44:34;100773.19;;;7.74;100.00
37860;BME280;23698;52.014;5.190;2023-04-15T01:47:21;100770.59;;;7.49;100.00
37860;BME280;23698;52.014;5.190;2023-04-15T01:50:08;100780.69;;;7.55;100.00
37860;BME280;23698;52.014;5.190;2023-04-15T01:52:55;100778.34;;;7.52;100.00
37860;BME280;23698;52.014;5.190;2023-04-15T01:55:41;100774.81;;;7.52;100.00
37860;BME280;23698;52.014;5.190;2023-04-15T01:58:28;100775.81;;;7.51;100.00
37860;BME280;23698;52.014;5.190;2023-04-15T02:01:16;100776.66;;;7.51;100.00
37860;BME280;23698;52.014;5.190;2023-04-15T02:04:05;100777.66;;;7.50;100.00
37860;BME280;23698;52.014;5.190;2023-04-15T02:06:52;100777.50;;;7.44;100.00
37860;BME280;23698;52.014;5.190;2023-04-15T02:09:39;100771.97;;;7.37;100.00
37860;BME280;23698;52.014;5.190;2023-04-15T02:12:25;100777.19;;;7.30;100.00
37860;BME280;23698;52.014;5.190;2023-04-15T02:15:12;100772.34;;;7.34;100.00
37860;BME280;23698;52.014;5.190;2023-04-15T02:18:00;100788.69;;;7.24;100.00
37860;BME280;23698;52.014;5.190;2023-04-15T02:20:46;100780.94;;;7.21;100.00
37860;BME280;23698;52.014;5.190;2023-04-15T02:23:33;100788.03;;;7.22;100.00
37860;BME280;23698;52.014;5.190;2023-04-15T02:26:20;100787.00;;;7.23;100.00
37860;BME280;23698;52.014;5.190;2023-04-15T02:29:06;100788.03;;;7.22;100.00
37860;BME280;23698;52.014;5.190;2023-04-15T02:31:53;100797.75;;;7.40;100.00
37860;BME280;23698;52.014;5.190;2023-04-15T02:34:41;100796.56;;;7.42;100.00
37860;BME280;23698;52.014;5.190;2023-04-15T02:37:27;100799.13;;;7.27;100.00
37860;BME280;23698;52.014;5.190;2023-04-15T02:40:15;100803.47;;;7.45;100.00
37860;BME280;23698;52.014;5.190;2023-04-15T02:43:03;100807.50;;;7.49;100.00
37860;BME280;23698;52.014;5.190;2023-04-15T02:45:51;100808.72;;;7.46;100.00
37860;BME280;23698;52.014;5.190;2023-04-15T02:48:38;100810.91;;;7.43;100.00
37860;BME280;23698;52.014;5.190;2023-04-15T02:51:29;100820.50;;;7.53;100.00
37860;BME280;23698;52.014;5.190;2023-04-15T02:54:16;100817.13;;;7.51;100.00
37860;BME280;23698;52.014;5.190;2023-04-15T02:57:02;100814.13;;;7.30;100.00
37860;BME280;23698;52.014;5.190;2023-04-15T02:59:51;100821.03;;;7.32;100.00
37860;BME280;23698;52.014;5.190;2023-04-15T03:02:40;100820.88;;;7.26;100.00
37860;BME280;23698;52.014;5.190;2023-04-15T03:05:27;100820.69;;;7.35;100.00
37860;BME280;23698;52.014;5.190;2023-04-15T03:08:15;100820.84;;;7.42;100.00
37860;BME280;23698;52.014;5.190;2023-04-15T03:11:01;100816.97;;;7.45;100.00
37860;BME280;23698;52.014;5.190;2023-04-15T03:13:48;100823.53;;;7.59;100.00
37860;BME280;23698;52.014;5.190;2023-04-15T03:16:44;100823.63;;;7.73;100.00
37860;BME280;23698;52.014;5.190;2023-04-15T03:19:33;100822.38;;;7.92;100.00
37860;BME280;23698;52.014;5.190;2023-04-15T03:22:20;100832.38;;;7.84;100.00
37860;BME280;23698;52.014;5.190;2023-04-15T03:25:08;100831.06;;;7.63;100.00
37860;BME280;23698;52.014;5.190;2023-04-15T03:27:55;100840.03;;;7.47;100.00
37860;BME280;23698;52.014;5.190;2023-04-15T03:30:42;100834.31;;;7.50;100.00
37860;BME280;23698;52.014;5.190;2023-04-15T03:33:28;100840.75;;;7.41;100.00
37860;BME280;23698;52.014;5.190;2023-04-15T03:36:15;100839.56;;;7.44;100.00
37860;BME280;23698;52.014;5.190;2023-04-15T03:39:01;100837.34;;;7.39;100.00
37860;BME280;23698;52.014;5.190;2023-04-15T03:41:49;100843.47;;;7.08;100.00
37860;BME280;23698;52.014;5.190;2023-04-15T03:44:35;100842.63;;;7.16;100.00
37860;BME280;23698;52.014;5.190;2023-04-15T03:47:22;100856.25;;;7.31;100.00
37860;BME280;23698;52.014;5.190;2023-04-15T03:50:09;100853.03;;;7.44;100.00
37860;BME280;23698;52.014;5.190;2023-04-15T03:52:55;100853.03;;;7.52;100.00
37860;BME280;23698;52.014;5.190;2023-04-15T03:55:41;100862.94;;;7.76;100.00
37860;BME280;23698;52.014;5.190;2023-04-15T03:58:30;100859.53;;;7.74;100.00
37860;BME280;23698;52.014;5.190;2023-04-15T04:01:16;100871.91;;;7.60;100.00
37860;BME280;23698;52.014;5.190;2023-04-15T04:04:02;100867.69;;;7.66;100.00
37860;BME280;23698;52.014;5.190;2023-04-15T04:06:49;100872.56;;;7.62;100.00
37860;BME280;23698;52.014;5.190;2023-04-15T04:09:35;100869.28;;;7.91;100.00
37860;BME280;23698;52.014;5.190;2023-04-15T04:12:23;100869.50;;;7.73;100.00
37860;BME280;23698;52.014;5.190;2023-04-15T04:15:10;100877.66;;;7.49;100.00
37860;BME280;23698;52.014;5.190;2023-04-15T04:17:56;100871.59;;;7.38;100.00
37860;BME280;23698;52.014;5.190;2023-04-15T04:20:43;100867.38;;;7.36;100.00
37860;BME280;23698;52.014;5.190;2023-04-15T04:23:29;100876.97;;;7.47;100.00
37860;BME280;23698;52.014;5.190;2023-04-15T04:26:16;100885.25;;;7.45;100.00
37860;BME280;23698;52.014;5.190;2023-04-15T04:29:02;100882.38;;;7.55;100.00
37860;BME280;23698;52.014;5.190;2023-04-15T04:31:50;100886.56;;;7.57;100.00
37860;BME280;23698;52.014;5.190;2023-04-15T04:34:40;100887.59;;;7.40;100.00
37860;BME280;23698;52.014;5.190;2023-04-15T04:37:26;100896.03;;;7.37;100.00
37860;BME280;23698;52.014;5.190;2023-04-15T04:40:12;100899.56;;;7.46;100.00
37860;BME280;23698;52.014;5.190;2023-04-15T04:42:58;100899.56;;;7.46;100.00
37860;BME280;23698;52.014;5.190;2023-04-15T04:45:45;100904.94;;;7.54;100.00
37860;BME280;23698;52.014;5.190;2023-04-15T04:48:33;100910.69;;;7.34;100.00
37860;BME280;23698;52.014;5.190;2023-04-15T04:51:19;100914.25;;;7.43;100.00
37860;BME280;23698;52.014;5.190;2023-04-15T04:54:06;100912.53;;;7.59;100.00
37860;BME280;23698;52.014;5.190;2023-04-15T04:56:52;100927.00;;;7.74;100.00
37860;BME280;23698;52.014;5.190;2023-04-15T04:59:38;100933.13;;;7.51;100.00
37860;BME280;23698;52.014;5.190;2023-04-15T05:02:25;100929.91;;;7.48;100.00
37860;BME280;23698;52.014;5.190;2023-04-15T05:05:13;100941.34;;;7.58;100.00
37860;BME280;23698;52.014;5.190;2023-04-15T05:08:00;100940.66;;;7.81;100.00
37860;BME280;23698;52.014;5.190;2023-04-15T05:10:46;100946.09;;;7.72;100.00
37860;BME280;23698;52.014;5.190;2023-04-15T05:13:32;100949.13;;;7.78;100.00
37860;BME280;23698;52.014;5.190;2023-04-15T05:16:18;100955.19;;;7.71;100.00
37860;BME280;23698;52.014;5.190;2023-04-15T05:19:05;100960.06;;;7.60;100.00
37860;BME280;23698;52.014;5.190;2023-04-15T05:21:53;100962.78;;;7.76;100.00
37860;BME280;23698;52.014;5.190;2023-04-15T05:24:39;100966.66;;;7.49;100.00
37860;BME280;23698;52.014;5.190;2023-04-15T05:27:25;100978.47;;;7.56;100.00
37860;BME280;23698;52.014;5.190;2023-04-15T05:30:12;100983.34;;;7.52;100.00
37860;BME280;23698;52.014;5.190;2023-04-15T05:32:58;100977.97;;;7.52;100.00
37860;BME280;23698;52.014;5.190;2023-04-15T05:35:44;100989.78;;;7.51;100.00
37860;BME280;23698;52.014;5.190;2023-04-15T05:38:32;100995.31;;;7.42;100.00
37860;BME280;23698;52.014;5.190;2023-04-15T05:41:18;100991.59;;;7.51;100.00
37860;BME280;23698;52.014;5.190;2023-04-15T05:44:05;100999.38;;;7.54;100.00
37860;BME280;23698;52.014;5.190;2023-04-15T05:46:51;100996.00;;;7.52;100.00
37860;BME280;23698;52.014;5.190;2023-04-15T05:49:37;101005.97;;;7.68;100.00
37860;BME280;23698;52.014;5.190;2023-04-15T05:52:24;101006.97;;;7.59;100.00
37860;BME280;23698;52.014;5.190;2023-04-15T05:55:12;101023.66;;;7.54;100.00
37860;BME280;23698;52.014;5.190;2023-04-15T05:57:58;101020.28;;;7.77;100.00
37860;BME280;23698;52.014;5.190;2023-04-15T06:00:45;101028.19;;;8.03;100.00
37860;BME280;23698;52.014;5.190;2023-04-15T06:03:31;101031.41;;;7.82;100.00
37860;BME280;23698;52.014;5.190;2023-04-15T06:06:18;101038.84;;;7.71;100.00
37860;BME280;23698;52.014;5.190;2023-04-15T06:09:05;101039.00;;;7.78;100.00
37860;BME280;23698;52.014;5.190;2023-04-15T06:11:52;101054.19;;;7.79;100.00
37860;BME280;23698;52.014;5.190;2023-04-15T06:14:40;101049.81;;;7.86;100.00
37860;BME280;23698;52.014;5.190;2023-04-15T06:17:26;101059.91;;;7.68;100.00
37860;BME280;23698;52.014;5.190;2023-04-15T06:20:13;101059.56;;;7.63;100.00
37860;BME280;23698;52.014;5.190;2023-04-15T06:23:00;101066.16;;;7.77;100.00
37860;BME280;23698;52.014;5.190;2023-04-15T06:25:46;101063.09;;;8.21;100.00
37860;BME280;23698;52.014;5.190;2023-04-15T06:28:34;101067.28;;;8.40;100.00
37860;BME280;23698;52.014;5.190;2023-04-15T06:31:20;101071.53;;;8.50;100.00
37860;BME280;23698;52.014;5.190;2023-04-15T06:34:06;101077.06;;;8.74;100.00
37860;BME280;23698;52.014;5.190;2023-04-15T06:36:53;101078.28;;;9.02;100.00
37860;BME280;23698;52.014;5.190;2023-04-15T06:39:40;101080.63;;;9.05;100.00
37860;BME280;23698;52.014;5.190;2023-04-15T06:42:26;101087.41;;;9.33;100.00
37860;BME280;23698;52.014;5.190;2023-04-15T06:45:14;101092.03;;;9.78;100.00
37860;BME280;23698;52.014;5.190;2023-04-15T06:48:01;101110.75;;;9.65;100.00
37860;BME280;23698;52.014;5.190;2023-04-15T06:50:48;101109.56;;;9.91;100.00
37860;BME280;23698;52.014;5.190;2023-04-15T06:53:34;101119.38;;;10.30;100.00
37860;BME280;23698;52.014;5.190;2023-04-15T06:56:25;101123.44;;;10.34;100.00
37860;BME280;23698;52.014;5.190;2023-04-15T06:59:11;101125.44;;;10.40;100.00
37860;BME280;23698;52.014;5.190;2023-04-15T07:02:02;101133.75;;;10.15;100.00
37860;BME280;23698;52.014;5.190;2023-04-15T07:04:50;101134.88;;;10.21;100.00
37860;BME280;23698;52.014;5.190;2023-04-15T07:07:37;101143.59;;;10.54;100.00
37860;BME280;23698;52.014;5.190;2023-04-15T07:10:23;101143.06;;;10.89;100.00
37860;BME280;23698;52.014;5.190;2023-04-15T07:13:10;101148.03;;;10.85;100.00
37860;BME280;23698;52.014;5.190;2023-04-15T07:15:56;101152.19;;;10.58;100.00
37860;BME280;23698;52.014;5.190;2023-04-15T07:18:44;101162.41;;;10.86;100.00
37860;BME280;23698;52.014;5.190;2023-04-15T07:21:31;101154.47;;;10.99;100.00
37860;BME280;23698;52.014;5.190;2023-04-15T07:24:17;101170.28;;;11.10;100.00
37860;BME280;23698;52.014;5.190;2023-04-15T07:27:05;101174.00;;;11.09;100.00
37860;BME280;23698;52.014;5.190;2023-04-15T07:29:51;101181.78;;;11.94;100.00
37860;BME280;23698;52.014;5.190;2023-04-15T07:32:37;101189.81;;;11.87;100.00
37860;BME280;23698;52.014;5.190;2023-04-15T07:35:25;101197.81;;;11.74;100.00
37860;BME280;23698;52.014;5.190;2023-04-15T07:38:13;101201.44;;;12.60;100.00
37860;BME280;23698;52.014;5.190;2023-04-15T07:40:59;101214.47;;;12.22;100.00
37860;BME280;23698;52.014;5.190;2023-04-15T07:43:45;101214.25;;;12.66;100.00
37860;BME280;23698;52.014;5.190;2023-04-15T07:46:32;101217.00;;;12.45;100.00
37860;BME280;23698;52.014;5.190;2023-04-15T07:49:18;101226.91;;;12.31;100.00
37860;BME280;23698;52.014;5.190;2023-04-15T07:52:07;101230.31;;;12.40;100.00
37860;BME280;23698;52.014;5.190;2023-04-15T07:54:53;101232.41;;;12.88;100.00
37860;BME280;23698;52.014;5.190;2023-04-15T07:57:39;101242.75;;;12.99;100.00
37860;BME280;23698;52.014;5.190;2023-04-15T08:00:26;101239.59;;;12.95;100.00
37860;BME280;23698;52.014;5.190;2023-04-15T08:03:12;101244.28;;;13.36;100.00
37860;BME280;23698;52.014;5.190;2023-04-15T08:06:00;101238.19;;;13.06;100.00
37860;BME280;23698;52.014;5.190;2023-04-15T08:08:48;101248.78;;;13.57;100.00
37860;BME280;23698;52.014;5.190;2023-04-15T08:11:34;101256.13;;;13.57;100.00
37860;BME280;23698;52.014;5.190;2023-04-15T08:14:21;101258.03;;;13.56;100.00
37860;BME280;23698;52.014;5.190;2023-04-15T08:17:09;101257.41;;;13.61;100.00
37860;BME280;23698;52.014;5.190;2023-04-15T08:19:55;101264.22;;;13.85;100.00
37860;BME280;23698;52.014;5.190;2023-04-15T08:22:41;101272.00;;;13.88;100.00
37860;BME280;23698;52.014;5.190;2023-04-15T08:25:29;101275.38;;;13.97;100.00
37860;BME280;23698;52.014;5.190;2023-04-15T08:28:15;101277.50;;;14.02;100.00
37860;BME280;23698;52.014;5.190;2023-04-15T08:31:02;101285.44;;;13.90;100.00
37860;BME280;23698;52.014;5.190;2023-04-15T08:33:49;101293.25;;;14.06;100.00
37860;BME280;23698;52.014;5.190;2023-04-15T08:36:37;101292.47;;;14.26;100.00
37860;BME280;23698;52.014;5.190;2023-04-15T08:39:24;101298.69;;;14.81;100.00
37860;BME280;23698;52.014;5.190;2023-04-15T08:42:16;101297.56;;;14.49;100.00
37860;BME280;23698;52.014;5.190;2023-04-15T08:45:04;101300.97;;;14.71;100.00
37860;BME280;23698;52.014;5.190;2023-04-15T08:47:52;101316.31;;;14.72;100.00
37860;BME280;23698;52.014;5.190;2023-04-15T08:50:41;101317.00;;;14.26;100.00
37860;BME280;23698;52.014;5.190;2023-04-15T08:53:28;101320.09;;;14.64;100.00
37860;BME280;23698;52.014;5.190;2023-04-15T08:56:15;101325.47;;;14.44;100.00
37860;BME280;23698;52.014;5.190;2023-04-15T08:59:03;101323.88;;;14.63;100.00
37860;BME280;23698;52.014;5.190;2023-04-15T09:01:50;101332.19;;;14.55;100.00
37860;BME280;23698;52.014;5.190;2023-04-15T09:04:38;101335.13;;;14.40;100.00
37860;BME280;23698;52.014;5.190;2023-04-15T09:07:24;101337.94;;;14.19;100.00
37860;BME280;23698;52.014;5.190;2023-04-15T09:10:11;101349.06;;;14.72;100.00
37860;BME280;23698;52.014;5.190;2023-04-15T09:12:58;101351.59;;;14.73;100.00
37860;BME280;23698;52.014;5.190;2023-04-15T09:15:46;101344.84;;;14.69;100.00
37860;BME280;23698;52.014;5.190;2023-04-15T09:18:33;101350.38;;;14.28;100.00
37860;BME280;23698;52.014;5.190;2023-04-15T09:21:20;101362.88;;;14.09;100.00
37860;BME280;23698;52.014;5.190;2023-04-15T09:24:07;101367.53;;;14.22;100.00
37860;BME280;23698;52.014;5.190;2023-04-15T09:26:57;101365.75;;;14.42;100.00
37860;BME280;23698;52.014;5.190;2023-04-15T09:29:43;101368.94;;;14.52;100.00
37860;BME280;23698;52.014;5.190;2023-04-15T09:32:31;101379.09;;;14.92;100.00
37860;BME280;23698;52.014;5.190;2023-04-15T09:35:17;101388.34;;;14.84;100.00
37860;BME280;23698;52.014;5.190;2023-04-15T09:38:06;101379.78;;;14.94;100.00
37860;BME280;23698;52.014;5.190;2023-04-15T09:40:54;101384.66;;;14.57;100.00
37860;BME280;23698;52.014;5.190;2023-04-15T09:43:40;101388.00;;;14.46;100.00
37860;BME280;23698;52.014;5.190;2023-04-15T09:46:40;101390.66;;;14.87;100.00
37860;BME280;23698;52.014;5.190;2023-04-15T09:49:28;101394.47;;;15.00;100.00
37860;BME280;23698;52.014;5.190;2023-04-15T09:52:15;101400.97;;;15.05;100.00
37860;BME280;23698;52.014;5.190;2023-04-15T09:55:01;101404.47;;;14.72;100.00
37860;BME280;23698;52.014;5.190;2023-04-15T09:57:48;101395.84;;;14.62;100.00
37860;BME280;23698;52.014;5.190;2023-04-15T10:00:34;101404.25;;;14.26;100.00
37860;BME280;23698;52.014;5.190;2023-04-15T10:03:24;101401.13;;;14.70;100.00
37860;BME280;23698;52.014;5.190;2023-04-15T10:06:13;101403.09;;;14.42;100.00
37860;BME280;23698;52.014;5.190;2023-04-15T10:09:00;101406.94;;;14.61;100.00
37860;BME280;23698;52.014;5.190;2023-04-15T10:11:48;101405.38;;;14.31;100.00
37860;BME280;23698;52.014;5.190;2023-04-15T10:14:37;101414.13;;;14.68;100.00
37860;BME280;23698;52.014;5.190;2023-04-15T10:17:26;101418.59;;;14.89;100.00
37860;BME280;23698;52.014;5.190;2023-04-15T10:20:16;101419.19;;;14.71;100.00
37860;BME280;23698;52.014;5.190;2023-04-15T10:23:06;101414.16;;;14.75;100.00
37860;BME280;23698;52.014;5.190;2023-04-15T10:25:56;101427.50;;;14.57;100.00
37860;BME280;23698;52.014;5.190;2023-04-15T10:28:43;101416.19;;;14.60;100.00
37860;BME280;23698;52.014;5.190;2023-04-15T10:31:31;101432.81;;;14.65;100.00
37860;BME280;23698;52.014;5.190;2023-04-15T10:34:18;101431.69;;;15.41;100.00
37860;BME280;23698;52.014;5.190;2023-04-15T10:37:04;101424.53;;;15.60;100.00
37860;BME280;23698;52.014;5.190;2023-04-15T10:39:56;101425.59;;;15.45;100.00
37860;BME280;23698;52.014;5.190;2023-04-15T10:42:42;101433.19;;;15.83;100.00
37860;BME280;23698;52.014;5.190;2023-04-15T10:45:32;101430.88;;;15.80;100.00
37860;BME280;23698;52.014;5.190;2023-04-15T10:48:18;101433.78;;;15.19;100.00
37860;BME280;23698;52.014;5.190;2023-04-15T10:51:05;101432.75;;;15.33;100.00
37860;BME280;23698;52.014;5.190;2023-04-15T10:53:55;101432.13;;;15.31;100.00
37860;BME280;23698;52.014;5.190;2023-04-15T10:56:44;101447.25;;;15.40;100.00
37860;BME280;23698;52.014;5.190;2023-04-15T10:59:31;101441.19;;;15.85;100.00
37860;BME280;23698;52.014;5.190;2023-04-15T11:02:17;101440.34;;;15.78;100.00
37860;BME280;23698;52.014;5.190;2023-04-15T11:05:04;101442.75;;;16.26;100.00
37860;BME280;23698;52.014;5.190;2023-04-15T11:07:53;101450.63;;;15.82;100.00
37860;BME280;23698;52.014;5.190;2023-04-15T11:10:50;101452.53;;;15.82;100.00
37860;BME280;23698;52.014;5.190;2023-04-15T11:13:48;101450.19;;;15.99;100.00
37860;BME280;23698;52.014;5.190;2023-04-15T11:16:41;101452.69;;;15.67;100.00
37860;BME280;23698;52.014;5.190;2023-04-15T11:19:35;101456.47;;;15.26;100.00
37860;BME280;23698;52.014;5.190;2023-04-15T11:22:22;101451.88;;;15.60;100.00
37860;BME280;23698;52.014;5.190;2023-04-15T11:25:09;101459.44;;;16.11;100.00
37860;BME280;23698;52.014;5.190;2023-04-15T11:27:55;101456.84;;;15.09;100.00
37860;BME280;23698;52.014;5.190;2023-04-15T11:30:44;101460.53;;;15.77;100.00
37860;BME280;23698;52.014;5.190;2023-04-15T11:33:30;101462.38;;;15.83;100.00
37860;BME280;23698;52.014;5.190;2023-04-15T11:36:17;101473.09;;;16.11;100.00
37860;BME280;23698;52.014;5.190;2023-04-15T11:39:06;101471.66;;;15.89;100.00
37860;BME280;23698;52.014;5.190;2023-04-15T11:41:53;101485.09;;;15.97;100.00
37860;BME280;23698;52.014;5.190;2023-04-15T11:44:39;101476.88;;;15.70;100.00
37860;BME280;23698;52.014;5.190;2023-04-15T11:47:26;101483.53;;;15.07;100.00
37860;BME280;23698;52.014;5.190;2023-04-15T11:50:14;101492.34;;;15.09;100.00
37860;BME280;23698;52.014;5.190;2023-04-15T11:53:02;101494.31;;;15.42;100.00
37860;BME280;23698;52.014;5.190;2023-04-15T11:55:55;101499.56;;;16.24;100.00
37860;BME280;23698;52.014;5.190;2023-04-15T11:58:41;101507.75;;;15.37;100.00
37860;BME280;23698;52.014;5.190;2023-04-15T12:01:31;101506.22;;;15.01;100.00
37860;BME280;23698;52.014;5.190;2023-04-15T12:04:20;101500.63;;;15.43;100.00
37860;BME280;23698;52.014;5.190;2023-04-15T12:07:10;101494.94;;;15.31;100.00
37860;BME280;23698;52.014;5.190;2023-04-15T12:09:56;101505.56;;;15.06;100.00
37860;BME280;23698;52.014;5.190;2023-04-15T12:12:49;101503.41;;;15.96;100.00
37860;BME280;23698;52.014;5.190;2023-04-15T12:15:36;101508.41;;;16.19;100.00
37860;BME280;23698;52.014;5.190;2023-04-15T12:18:24;101514.94;;;15.52;100.00
37860;BME280;23698;52.014;5.190;2023-04-15T12:21:12;101516.44;;;15.94;100.00
37860;BME280;23698;52.014;5.190;2023-04-15T12:24:02;101517.06;;;15.96;100.00
37860;BME280;23698;52.014;5.190;2023-04-15T12:26:50;101518.91;;;15.49;100.00
37860;BME280;23698;52.014;5.190;2023-04-15T12:29:38;101528.94;;;14.67;100.00
37860;BME280;23698;52.014;5.190;2023-04-15T12:32:25;101523.56;;;14.52;100.00
37860;BME280;23698;52.014;5.190;2023-04-15T12:35:12;101530.47;;;15.58;100.00
37860;BME280;23698;52.014;5.190;2023-04-15T12:37:59;101544.09;;;15.31;100.00
37860;BME280;23698;52.014;5.190;2023-04-15T12:40:46;101553.00;;;14.91;100.00
37860;BME280;23698;52.014;5.190;2023-04-15T12:43:32;101551.03;;;15.34;100.00
37860;BME280;23698;52.014;5.190;2023-04-15T12:46:18;101548.13;;;14.80;100.00
37860;BME280;23698;52.014;5.190;2023-04-15T12:49:05;101547.06;;;14.81;100.00
37860;BME280;23698;52.014;5.190;2023-04-15T12:51:53;101563.03;;;14.49;100.00
37860;BME280;23698;52.014;5.190;2023-04-15T12:54:41;101566.25;;;14.95;100.00
37860;BME280;23698;52.014;5.190;2023-04-15T12:57:30;101564.34;;;14.95;100.00
37860;BME280;23698;52.014;5.190;2023-04-15T13:00:17;101575.66;;;14.92;100.00
37860;BME280;23698;52.014;5.190;2023-04-15T13:03:03;101573.94;;;14.49;100.00
37860;BME280;23698;52.014;5.190;2023-04-15T13:05:54;101586.25;;;14.39;100.00
37860;BME280;23698;52.014;5.190;2023-04-15T13:08:41;101579.78;;;14.75;100.00
37860;BME280;23698;52.014;5.190;2023-04-15T13:11:48;101567.94;;;15.02;100.00
37860;BME280;23698;52.014;5.190;2023-04-15T13:14:35;101570.59;;;14.82;100.00
37860;BME280;23698;52.014;5.190;2023-04-15T13:17:21;101581.63;;;15.09;100.00
37860;BME280;23698;52.014;5.190;2023-04-15T13:20:07;101589.69;;;15.30;100.00
37860;BME280;23698;52.014;5.190;2023-04-15T13:22:58;101600.53;;;14.69;100.00
37860;BME280;23698;52.014;5.190;2023-04-15T13:25:45;101604.78;;;14.78;100.00
37860;BME280;23698;52.014;5.190;2023-04-15T13:28:33;101600.66;;;14.32;100.00
37860;BME280;23698;52.014;5.190;2023-04-15T13:31:23;101604.78;;;14.50;100.00
37860;BME280;23698;52.014;5.190;2023-04-15T13:34:09;101610.16;;;14.65;100.00
37860;BME280;23698;52.014;5.190;2023-04-15T13:36:55;101613.72;;;15.00;100.00
37860;BME280;23698;52.014;5.190;2023-04-15T13:39:41;101619.44;;;14.42;100.00
37860;BME280;23698;52.014;5.190;2023-04-15T13:42:27;101626.22;;;14.25;100.00
37860;BME280;23698;52.014;5.190;2023-04-15T13:45:18;101620.38;;;14.06;100.00
37860;BME280;23698;52.014;5.190;2023-04-15T13:48:05;101633.16;;;14.27;100.00
37860;BME280;23698;52.014;5.190;2023-04-15T13:50:51;101622.81;;;13.94;100.00
37860;BME280;23698;52.014;5.190;2023-04-15T13:53:38;101626.19;;;13.96;100.00
37860;BME280;23698;52.014;5.190;2023-04-15T13:56:24;101642.38;;;14.26;100.00
37860;BME280;23698;52.014;5.190;2023-04-15T13:59:12;101630.56;;;14.69;100.00
37860;BME280;23698;52.014;5.190;2023-04-15T14:01:59;101647.31;;;14.16;100.00
37860;BME280;23698;52.014;5.190;2023-04-15T14:04:46;101630.25;;;14.07;100.00
37860;BME280;23698;52.014;5.190;2023-04-15T14:07:32;101649.53;;;14.06;100.00
37860;BME280;23698;52.014;5.190;2023-04-15T14:10:19;101633.97;;;14.49;100.00
37860;BME280;23698;52.014;5.190;2023-04-15T14:13:06;101661.47;;;14.05;100.00
37860;BME280;23698;52.014;5.190;2023-04-15T14:15:52;101661.00;;;14.01;100.00
37860;BME280;23698;52.014;5.190;2023-04-15T14:18:40;101691.16;;;13.56;100.00
37860;BME280;23698;52.014;5.190;2023-04-15T14:21:26;101669.66;;;14.05;100.00
37860;BME280;23698;52.014;5.190;2023-04-15T14:24:14;101679.63;;;13.97;100.00
37860;BME280;23698;52.014;5.190;2023-04-15T14:27:00;101676.50;;;13.28;100.00
37860;BME280;23698;52.014;5.190;2023-04-15T14:29:47;101670.00;;;13.58;100.00